createdAt,value
2023-05-21T00:00:26.926Z,87.99
2023-05-21T00:05:28.874Z,88.22
2023-05-21T00:10:30.601Z,89.04
2023-05-21T00:15:32.363Z,89.57
2023-05-21T00:20:34.136Z,89.40
2023-05-21T00:25:36.041Z,89.31
2023-05-21T00:30:38.196Z,89.76
2023-05-21T00:35:40.083Z,89.99
2023-05-21T00:40:41.859Z,90.46
2023-05-21T00:45:47.517Z,90.02
2023-05-21T00:50:50.208Z,89.70
2023-05-21T00:55:52.069Z,89.60
2023-05-21T01:00:57.063Z,89.50
2023-05-21T01:06:01.504Z,89.67
2023-05-21T01:11:05.194Z,89.37
2023-05-21T01:16:08.990Z,89.81
2023-05-21T01:21:11.195Z,90.26
2023-05-21T01:26:13.132Z,90.58
2023-05-21T01:31:26.419Z,90.10
2023-05-21T01:36:34.789Z,89.45
2023-05-21T01:41:41.170Z,89.53
2023-05-21T01:46:42.893Z,90.38
2023-05-21T01:51:45.118Z,89.97
2023-05-21T01:56:48.044Z,90.61
2023-05-21T02:01:49.983Z,90.89
2023-05-21T02:06:52.038Z,91.62
2023-05-21T02:11:54.324Z,92.28
2023-05-21T02:16:56.848Z,92.86
2023-05-21T02:21:58.532Z,93.80
2023-05-21T02:27:00.402Z,93.66
2023-05-21T02:32:02.827Z,93.68
2023-05-21T02:37:04.674Z,93.24
2023-05-21T02:42:06.599Z,93.12
2023-05-21T02:47:10.413Z,92.99
2023-05-21T02:52:12.966Z,93.48
2023-05-21T02:57:15.263Z,94.27
2023-05-21T03:02:17.204Z,94.08
2023-05-21T03:07:20.122Z,94.12
2023-05-21T03:12:22.203Z,94.87
2023-05-21T03:17:23.992Z,94.59
2023-05-21T03:22:25.895Z,94.15
2023-05-21T03:27:28.010Z,94.28
2023-05-21T03:32:30.280Z,93.47
2023-05-21T03:37:32.727Z,93.31
2023-05-21T03:42:35.269Z,92.94
2023-05-21T03:47:37.338Z,92.76
2023-05-21T03:52:41.321Z,92.56
2023-05-21T03:57:43.804Z,91.84
2023-05-21T04:07:15.329Z,87.34
2023-05-21T04:12:19.184Z,84.31
2023-05-21T04:17:22.391Z,80.87
2023-05-21T04:22:26.835Z,78.06
2023-05-21T04:27:28.694Z,75.67
2023-05-21T04:32:33.546Z,73.03
2023-05-21T04:37:36.383Z,69.95
2023-05-21T04:42:39.280Z,69.22
2023-05-21T04:47:43.389Z,67.51
2023-05-21T04:52:45.739Z,66.15
2023-05-21T04:57:47.663Z,65.72
2023-05-21T05:02:49.729Z,66.10
2023-05-21T05:07:51.712Z,66.21
2023-05-21T05:12:53.668Z,64.65
2023-05-21T05:17:56.701Z,64.30
2023-05-21T05:22:58.638Z,64.26
2023-05-21T05:28:00.821Z,63.56
2023-05-21T05:33:02.997Z,62.77
2023-05-21T05:38:05.970Z,62.45
2023-05-21T05:43:07.925Z,60.57
2023-05-21T05:48:09.888Z,59.95
2023-05-21T05:53:13.423Z,59.54
2023-05-21T05:58:15.634Z,58.65
2023-05-21T06:03:41.712Z,57.62
2023-05-21T06:08:46.608Z,57.72
2023-05-21T06:13:48.497Z,56.49
2023-05-21T06:18:51.492Z,56.16
2023-05-21T06:23:53.467Z,55.17
2023-05-21T06:28:56.675Z,54.54
2023-05-21T06:34:00.008Z,54.26
2023-05-21T06:39:03.417Z,54.24
2023-05-21T06:44:06.128Z,53.54
2023-05-21T06:49:35.039Z,53.47
2023-05-21T06:54:37.121Z,52.62
2023-05-21T06:59:39.369Z,51.67
2023-05-21T07:04:41.228Z,51.01
2023-05-21T07:09:42.950Z,50.50
2023-05-21T07:14:45.268Z,51.50
2023-05-21T07:19:47.182Z,50.83
2023-05-21T07:24:49.407Z,49.01
2023-05-21T07:29:52.359Z,48.79
2023-05-21T07:34:56.730Z,49.64
2023-05-21T07:40:00.475Z,48.28
2023-05-21T07:45:03.042Z,48.28
2023-05-21T07:50:08.766Z,46.93
2023-05-21T07:55:11.313Z,45.73
2023-05-21T08:00:14.310Z,45.42
2023-05-21T08:05:24.456Z,44.74
2023-05-21T08:10:26.400Z,43.70
2023-05-21T08:15:28.363Z,43.36
2023-05-21T08:20:32.248Z,42.05
2023-05-21T08:25:34.260Z,42.40
2023-05-21T08:30:37.573Z,41.11
2023-05-21T08:35:39.529Z,39.79
2023-05-21T08:40:59.582Z,39.66
2023-05-21T08:46:04.228Z,38.67
2023-05-21T08:51:07.826Z,37.49
2023-05-21T08:56:17.855Z,37.54
2023-05-21T09:01:42.298Z,36.22
2023-05-21T09:06:54.963Z,35.32
2023-05-21T09:12:10.148Z,35.52
2023-05-21T09:17:14.935Z,36.23
2023-05-21T09:22:17.652Z,34.97
2023-05-21T09:27:19.507Z,35.21
2023-05-21T09:32:21.382Z,35.37
2023-05-21T09:37:27.569Z,34.57
2023-05-21T09:42:30.156Z,34.65
2023-05-21T09:47:32.486Z,33.70
2023-05-21T09:52:37.295Z,33.93
2023-05-21T09:57:50.887Z,33.53
2023-05-21T10:03:01.818Z,33.59
2023-05-21T10:08:04.892Z,33.54
2023-05-21T10:13:10.365Z,32.40
2023-05-21T10:18:13.645Z,31.83
2023-05-21T10:23:15.699Z,31.75
2023-05-21T10:28:20.707Z,31.06
2023-05-21T10:33:25.073Z,29.58
2023-05-21T10:38:27.967Z,28.98
2023-05-21T10:43:48.588Z,30.16
2023-05-21T10:48:56.066Z,29.60
2023-05-21T10:54:36.996Z,29.89
2023-05-21T10:59:49.346Z,29.74
2023-05-21T11:04:58.751Z,28.43
2023-05-21T11:10:32.781Z,28.30
2023-05-21T11:15:57.747Z,28.58
2023-05-21T11:21:06.812Z,27.98
2023-05-21T11:26:08.561Z,27.46
2023-05-21T11:31:27.254Z,28.67
2023-05-21T11:36:29.135Z,27.63
2023-05-21T11:41:31.065Z,27.99
2023-05-21T11:46:34.274Z,28.30
2023-05-21T11:51:36.725Z,28.80
2023-05-21T11:56:42.028Z,28.53
2023-05-21T12:01:44.293Z,28.10
2023-05-21T12:06:46.129Z,27.53
2023-05-21T12:11:47.906Z,27.34
2023-05-21T12:16:49.952Z,27.63
2023-05-21T12:21:51.739Z,29.35
2023-05-21T12:26:55.195Z,28.76
2023-05-21T12:32:01.774Z,28.80
2023-05-21T12:37:05.508Z,29.76
2023-05-21T12:42:08.496Z,28.89
2023-05-21T12:47:11.263Z,28.64
2023-05-21T12:52:14.466Z,28.59
2023-05-21T12:57:17.474Z,29.71
2023-05-21T13:02:22.153Z,30.99
2023-05-21T13:07:26.331Z,30.26
2023-05-21T13:12:30.028Z,30.59
2023-05-21T13:17:32.315Z,30.00
2023-05-21T13:22:35.734Z,28.68
2023-05-21T13:27:39.696Z,29.85
2023-05-21T13:32:42.681Z,28.99
2023-05-21T13:37:45.071Z,29.01
2023-05-21T13:42:48.824Z,28.84
2023-05-21T13:47:50.789Z,27.82
2023-05-21T13:52:52.489Z,28.28
2023-05-21T13:57:54.379Z,28.93
2023-05-21T14:02:56.795Z,29.39
2023-05-21T14:07:58.950Z,27.59
2023-05-21T14:13:11.228Z,27.95
2023-05-21T14:18:17.765Z,26.87
2023-05-21T14:23:19.576Z,26.72
2023-05-21T14:28:21.859Z,26.65
2023-05-21T14:33:23.681Z,27.59
2023-05-21T14:38:25.995Z,29.35
2023-05-21T14:43:27.754Z,28.77
2023-05-21T14:48:29.514Z,27.55
2023-05-21T14:53:31.323Z,27.41
2023-05-21T14:58:33.182Z,27.45
2023-05-21T15:03:35.046Z,27.90
2023-05-21T15:08:36.958Z,28.18
2023-05-21T15:13:39.568Z,29.25
2023-05-21T15:18:41.357Z,29.59
2023-05-21T15:23:43.065Z,29.68
2023-05-21T15:28:44.797Z,30.19
2023-05-21T15:33:46.566Z,29.85
2023-05-21T15:38:48.633Z,29.88
2023-05-21T15:43:50.394Z,29.65
2023-05-21T15:48:52.152Z,29.50
2023-05-21T15:53:54.512Z,30.17
2023-05-21T15:58:58.650Z,31.56
2023-05-21T16:04:03.372Z,32.65
2023-05-21T16:09:05.563Z,32.23
2023-05-21T16:14:07.408Z,32.58
2023-05-21T16:19:09.169Z,32.80
2023-05-21T16:24:11.023Z,32.88
2023-05-21T16:29:14.851Z,32.52
2023-05-21T16:34:16.611Z,33.54
2023-05-21T16:39:18.442Z,34.30
2023-05-21T16:44:20.424Z,34.58
2023-05-21T16:49:22.180Z,34.93
2023-05-21T16:54:23.913Z,34.88
2023-05-21T16:59:25.676Z,34.87
2023-05-21T17:04:27.424Z,36.54
2023-05-21T17:09:29.397Z,37.89
2023-05-21T17:14:34.178Z,38.86
2023-05-21T17:19:37.557Z,38.50
2023-05-21T17:24:39.505Z,38.84
2023-05-21T17:29:41.492Z,39.22
2023-05-21T17:34:44.051Z,40.29
2023-05-21T17:39:46.050Z,41.55
2023-05-21T17:44:47.785Z,42.41
2023-05-21T17:49:49.512Z,43.21
2023-05-21T17:54:51.491Z,44.02
2023-05-21T17:59:53.276Z,44.93
2023-05-21T18:04:55.136Z,46.01
2023-05-21T18:09:57.048Z,46.47
2023-05-21T18:14:58.869Z,47.54
2023-05-21T18:20:00.648Z,48.64
2023-05-21T18:25:03.548Z,49.36
2023-05-21T18:30:08.585Z,49.82
2023-05-21T18:35:12.005Z,50.97
2023-05-21T18:40:16.980Z,51.95
2023-05-21T18:45:18.757Z,52.65
2023-05-21T18:50:20.605Z,53.20
2023-05-21T18:55:22.621Z,53.84
2023-05-21T19:00:24.348Z,54.02
2023-05-21T19:05:26.389Z,54.18
2023-05-21T19:10:30.697Z,54.75
2023-05-21T19:15:33.021Z,55.40
2023-05-21T19:20:36.984Z,55.74
2023-05-21T19:25:39.254Z,56.36
2023-05-21T19:30:41.097Z,57.00
2023-05-21T19:35:43.489Z,57.20
2023-05-21T19:40:45.512Z,57.40
2023-05-21T19:45:47.426Z,57.84
2023-05-21T19:50:49.185Z,58.45
2023-05-21T19:55:51.188Z,58.64
2023-05-21T20:00:55.803Z,58.61
2023-05-21T20:05:58.682Z,58.85
2023-05-21T20:11:00.877Z,59.42
2023-05-21T20:16:02.613Z,59.90
2023-05-21T20:21:06.398Z,60.82
2023-05-21T20:26:08.388Z,61.43
2023-05-21T20:31:10.196Z,61.97
2023-05-21T20:36:15.292Z,62.07
2023-05-21T20:41:17.321Z,62.67
2023-05-21T20:46:19.944Z,62.76
2023-05-21T20:51:21.842Z,62.96
2023-05-21T20:56:39.884Z,62.90
2023-05-21T21:01:43.643Z,63.09
2023-05-21T21:06:47.277Z,63.12
2023-05-21T21:11:50.740Z,62.96
2023-05-21T21:16:54.350Z,62.94
2023-05-21T21:21:56.246Z,62.78
2023-05-21T21:26:58.023Z,62.98
2023-05-21T21:31:59.890Z,63.00
2023-05-21T21:37:01.669Z,63.17
2023-05-21T21:42:04.309Z,63.39
2023-05-21T21:47:09.855Z,63.63
2023-05-21T21:52:14.751Z,64.20
2023-05-21T21:57:16.535Z,64.44
2023-05-21T22:02:18.525Z,64.58
2023-05-21T22:07:20.799Z,64.67
2023-05-21T22:12:22.691Z,64.55
2023-05-21T22:17:24.496Z,64.57
2023-05-21T22:22:26.747Z,65.24
2023-05-21T22:27:28.687Z,65.48
2023-05-21T22:32:30.778Z,65.70
2023-05-21T22:37:32.586Z,66.11
2023-05-21T22:42:35.151Z,66.12
2023-05-21T22:47:39.734Z,66.19
2023-05-21T22:52:41.929Z,66.54
2023-05-21T22:57:44.309Z,66.91
2023-05-21T23:02:47.505Z,67.46
2023-05-21T23:07:50.036Z,67.40
2023-05-21T23:12:54.192Z,67.63
2023-05-21T23:17:56.920Z,67.46
2023-05-21T23:22:58.911Z,67.68
2023-05-21T23:28:00.673Z,67.56
2023-05-21T23:33:02.632Z,67.95
2023-05-21T23:38:05.219Z,68.40
2023-05-21T23:43:18.131Z,68.76
2023-05-21T23:48:23.344Z,68.89
2023-05-21T23:53:25.886Z,68.88
2023-05-21T23:58:27.625Z,68.96
